YMML/MEL METAR and TAF weather

Enter ICAO airport designator
Station Type Date Time Source
YMML METAR 2019/08/26 07:00 UTC NOAA

YMML 260700Z 14005KT 9999 FEW035 12/04 Q1024


Station Type Date Time Source
YMML Decoded METAR 2019/08/26 07:00 UTC NOAA

Station name not available
Aug 26, 2019 - 03:00 AM EDT / 2019.08.26 0700 UTC
Wind: from the SE (140 degrees) at 6 MPH (5 KT):0
Visibility: greater than 7 mile(s):0
Sky conditions: mostly clear
Temperature: 53 F (12 C)
Dew Point: 39 F (4 C)
Relative Humidity: 57%
Pressure (altimeter): 30.24 in. Hg (1024 hPa)
ob: YMML 260700Z 14005KT 9999 FEW035 12/04 Q1024
cycle: 7

Station Type Date Time Source
YMML TAF 2019/08/26 06:49 UTC NOAA

TAF YMML 260514Z 2606/2712 17010KT 9999 FEW035 SCT050
FM260800 VRB05KT 9999 SCT030
FM261400 31008KT 9999 FEW025
FM262300 24009KT 9999 FEW040
FM270900 31008KT 9999 FEW025

Example: see airport list